Mountain Home Air Force Base
KMUO : now visible

Airfield :











YOU CAN JOIN US ON...

 
LOGIN :

Register | Disclaimer

   EN    FR    IT 

 









Legend :    VFR   Marginal VFR   IFR   Intensive IFR   Very Intensive IFR
Visi :
Ceiling :
>= 8 km
>= 3000ft
5 to 8 km
1000 to 3000 ft
1500m to 5 km
500 to 1000 ft
800 to 1500m
200 to 500 ft
< 800m
< 200 ft
Symbols :   Thunderstorms  Fog  Heavy snow  Heavy precipitations  Wind > 20 kt






- Airport Elevation : 2996 ft


KMUO - Mountain Home Air Force Base

CURRENT METAR :
  • 241420Z AUTO 26011KT 10SM -RA OVC055 13/M01 A2982 RMK AO2 RAB20 SLP098 $

EXPIRED METARs :
  • 241358Z AUTO 23004KT 10SM OVC055 12/M05 A2982 RMK AO2 SLP100 T01231048 $
  • 241258Z AUTO 00000KT 10SM OVC060 09/M08 A2982 RMK AO2 SLP100 T00941082 $
  • 241158Z AUTO 13003KT 10SM OVC065 09/M09 A2983 RMK AO2 SLP099 T00901095 10091 20072 58006 $

TAF TAF KMUO
Valid from the 24 at 10:00 until the 25 at 16:00 UTC


241000Z 2410/2516 VRB06KT 9999 VCSH BKN060 QNH2979INS
BECMG 2414/2415 32009KT 8000 -SHRA BKN050 QNH2980INS
BECMG 2417/2418 32015G20KT 8000 -SHRA BKN070 QNH2985INS
BECMG 2421/2422 32015G25KT 9999 VCSH SCT060 510009 QNH2986INS
TEMPO 2503/2508 32020G30KT 520009
BECMG 2510/2511 32009KT 9999 NSW BKN080 QNH3005INS TX13/2422Z TN06/2413Z
KZLC FIR / North America



MET'MAP, your aeronautical weather chart ! - Copyright ORBIFLY December 2007 - Disclaimer

ORBIFLY MET'MAP TEAM :

Programming & Development : Alexandra Zaïnal
Concept & original design : Baudouin d'Aumeries
Assistance for programming : Marc-Olivier Méhu
Technical & hardware support : Manuel Goepfert

Contact : metmap@orbifly.com




SOURCES & CREDITS :

   NOAA       Earth
Advisory